createdAt,value
2023-01-13T00:00:33.922Z,10.47
2023-01-13T00:03:03.579Z,10.48
2023-01-13T00:05:30.513Z,10.45
2023-01-13T00:07:57.769Z,10.47
2023-01-13T00:10:24.890Z,10.44
2023-01-13T00:12:53.724Z,10.45
2023-01-13T00:15:20.701Z,10.48
2023-01-13T00:17:48.864Z,10.47
2023-01-13T00:20:16.225Z,10.49
2023-01-13T00:22:43.158Z,10.47
2023-01-13T00:25:10.335Z,10.47
2023-01-13T00:27:37.314Z,10.50
2023-01-13T00:30:05.777Z,10.52
2023-01-13T00:32:32.655Z,10.49
2023-01-13T00:34:59.957Z,10.51
2023-01-13T00:37:26.896Z,10.57
2023-01-13T00:39:54.085Z,10.57
2023-01-13T00:42:39.775Z,10.55
2023-01-13T00:45:06.888Z,10.55
2023-01-13T00:47:33.802Z,10.58
2023-01-13T00:50:01.079Z,10.54
2023-01-13T00:52:27.951Z,10.54
2023-01-13T00:54:54.914Z,10.53
2023-01-13T00:57:21.951Z,10.53
2023-01-13T00:59:49.703Z,10.53
2023-01-13T01:02:16.892Z,10.55
2023-01-13T01:04:43.926Z,10.56
2023-01-13T01:07:10.876Z,10.55
2023-01-13T01:09:39.770Z,10.57
2023-01-13T01:12:07.049Z,10.57
2023-01-13T01:14:36.764Z,10.56
2023-01-13T01:17:04.188Z,10.56
2023-01-13T01:19:31.369Z,10.52
2023-01-13T01:21:58.361Z,10.50
2023-01-13T01:24:25.350Z,10.46
2023-01-13T01:26:52.376Z,10.41
2023-01-13T01:29:19.587Z,10.39
2023-01-13T01:31:46.762Z,10.33
2023-01-13T01:34:14.124Z,10.19
2023-01-13T01:36:41.174Z,10.21
2023-01-13T01:39:08.233Z,10.16
2023-01-13T01:41:36.023Z,10.04
2023-01-13T01:44:08.696Z,9.96
2023-01-13T01:46:42.968Z,9.81
2023-01-13T01:49:18.282Z,9.71
2023-01-13T01:51:50.278Z,9.60
2023-01-13T01:54:20.388Z,9.57
2023-01-13T01:56:47.475Z,9.57
2023-01-13T01:59:15.165Z,9.55
2023-01-13T02:01:42.971Z,9.57
2023-01-13T02:04:12.927Z,9.56
2023-01-13T02:06:40.337Z,9.50
2023-01-13T02:09:07.240Z,9.47
2023-01-13T02:11:53.776Z,9.41
2023-01-13T02:14:22.405Z,9.37
2023-01-13T02:17:08.368Z,9.37
2023-01-13T02:19:57.364Z,9.33
2023-01-13T02:22:33.606Z,9.32
2023-01-13T02:25:19.569Z,9.26
2023-01-13T02:27:52.556Z,9.21
2023-01-13T02:30:41.595Z,9.17
2023-01-13T02:33:23.992Z,9.12
2023-01-13T02:35:52.710Z,9.06
2023-01-13T02:38:22.973Z,9.02
2023-01-13T02:40:49.907Z,8.99
2023-01-13T02:43:37.395Z,8.97
2023-01-13T02:46:23.059Z,8.93
2023-01-13T02:48:50.965Z,8.91
2023-01-13T02:51:19.848Z,8.91
2023-01-13T02:53:56.845Z,8.93
2023-01-13T02:56:24.521Z,8.88
2023-01-13T02:58:52.502Z,8.86
2023-01-13T03:01:19.805Z,8.82
2023-01-13T03:03:47.057Z,8.81
2023-01-13T03:06:14.377Z,8.78
2023-01-13T03:08:48.752Z,8.78
2023-01-13T03:11:17.605Z,8.76
2023-01-13T03:13:56.852Z,8.75
2023-01-13T03:16:26.509Z,8.73
2023-01-13T03:18:53.401Z,8.65
2023-01-13T03:21:23.030Z,8.63
2023-01-13T03:23:49.870Z,8.60
2023-01-13T03:26:25.567Z,8.59
2023-01-13T03:28:54.678Z,8.59
2023-01-13T03:31:29.854Z,8.54
2023-01-13T03:34:07.518Z,8.51
2023-01-13T03:36:36.353Z,8.47
2023-01-13T03:39:12.281Z,8.41
2023-01-13T03:41:43.145Z,8.40
2023-01-13T03:44:24.574Z,8.39
2023-01-13T03:46:51.335Z,8.37
2023-01-13T03:49:20.448Z,8.35
2023-01-13T03:51:49.236Z,8.33
2023-01-13T03:54:17.529Z,8.27
2023-01-13T03:57:10.766Z,8.28
2023-01-13T03:59:40.336Z,8.28
2023-01-13T04:02:10.796Z,8.29
2023-01-13T04:04:37.671Z,8.30
2023-01-13T04:07:15.285Z,8.32
2023-01-13T04:09:42.170Z,8.26
2023-01-13T04:12:12.940Z,8.26
2023-01-13T04:14:40.647Z,8.27
2023-01-13T04:17:07.606Z,8.26
2023-01-13T04:19:34.602Z,8.23
2023-01-13T04:22:01.554Z,8.22
2023-01-13T04:24:28.377Z,8.18
2023-01-13T04:26:56.813Z,8.17
2023-01-13T04:29:23.636Z,8.17
2023-01-13T04:31:50.715Z,8.12
2023-01-13T04:34:17.563Z,8.12
2023-01-13T04:36:45.214Z,8.10
2023-01-13T04:39:12.198Z,8.07
2023-01-13T04:41:57.539Z,8.03
2023-01-13T04:44:24.469Z,8.00
2023-01-13T04:46:51.287Z,8.00
2023-01-13T04:49:18.257Z,7.97
2023-01-13T04:51:45.418Z,7.94
2023-01-13T04:54:12.547Z,7.94
2023-01-13T04:56:39.470Z,7.92
2023-01-13T04:59:06.287Z,7.94
2023-01-13T05:01:36.122Z,7.90
2023-01-13T05:04:03.222Z,7.88
2023-01-13T05:06:30.620Z,7.88
2023-01-13T05:08:57.785Z,7.87
2023-01-13T05:11:43.462Z,7.86
2023-01-13T05:14:28.796Z,7.86
2023-01-13T05:17:03.256Z,7.89
2023-01-13T05:19:35.459Z,7.87
2023-01-13T05:22:21.683Z,7.89
2023-01-13T05:25:08.201Z,7.91
2023-01-13T05:27:35.099Z,7.92
2023-01-13T05:30:02.235Z,7.96
2023-01-13T05:32:29.280Z,7.94
2023-01-13T05:34:56.203Z,7.92
2023-01-13T05:37:23.934Z,7.90
2023-01-13T05:40:09.189Z,7.88
2023-01-13T05:42:54.809Z,7.82
2023-01-13T05:45:21.736Z,7.84
2023-01-13T05:47:48.739Z,7.81
2023-01-13T05:50:15.837Z,7.81
2023-01-13T05:52:43.505Z,7.79
2023-01-13T05:55:10.885Z,7.82
2023-01-13T05:57:37.736Z,7.83
2023-01-13T06:00:05.166Z,7.77
2023-01-13T06:02:32.128Z,7.73
2023-01-13T06:04:59.031Z,7.74
2023-01-13T06:07:31.709Z,7.75
2023-01-13T06:09:58.603Z,7.73
2023-01-13T06:12:25.562Z,7.72
2023-01-13T06:14:52.614Z,7.74
2023-01-13T06:17:19.480Z,7.73
2023-01-13T06:19:46.628Z,7.75
2023-01-13T06:22:23.347Z,7.77
2023-01-13T06:24:50.746Z,7.78
2023-01-13T06:27:18.027Z,7.80
2023-01-13T06:29:44.923Z,7.81
2023-01-13T06:32:23.699Z,7.81
2023-01-13T06:34:54.234Z,7.85
2023-01-13T06:37:23.641Z,7.87
2023-01-13T06:39:50.531Z,7.95
2023-01-13T06:42:36.056Z,7.96
2023-01-13T06:45:03.530Z,7.97
2023-01-13T06:47:30.332Z,7.97
2023-01-13T06:49:57.338Z,7.98
2023-01-13T06:52:24.439Z,7.97
2023-01-13T06:54:51.214Z,7.90
2023-01-13T06:57:18.124Z,7.89
2023-01-13T06:59:44.945Z,7.84
2023-01-13T07:02:11.892Z,7.88
2023-01-13T07:04:38.840Z,7.88
2023-01-13T07:07:05.793Z,7.89
2023-01-13T07:09:32.717Z,7.86
2023-01-13T07:11:59.682Z,7.83
2023-01-13T07:14:45.295Z,7.77
2023-01-13T07:17:12.207Z,7.80
2023-01-13T07:19:39.076Z,7.80
2023-01-13T07:22:06.052Z,7.80
2023-01-13T07:24:33.110Z,7.80
2023-01-13T07:27:00.232Z,7.79
2023-01-13T07:29:27.067Z,7.80
2023-01-13T07:31:54.094Z,7.82
2023-01-13T07:34:22.093Z,7.82
2023-01-13T07:36:48.942Z,7.80
2023-01-13T07:39:15.876Z,7.80
2023-01-13T07:42:01.397Z,7.80
2023-01-13T07:44:28.202Z,7.80
2023-01-13T07:46:55.111Z,7.79
2023-01-13T07:49:22.098Z,7.77
2023-01-13T07:51:48.943Z,7.77
2023-01-13T07:54:16.179Z,7.78
2023-01-13T07:56:43.223Z,7.78
2023-01-13T07:59:10.012Z,7.82
2023-01-13T08:01:37.506Z,7.80
2023-01-13T08:04:04.400Z,7.81
2023-01-13T08:06:31.215Z,7.81
2023-01-13T08:08:58.458Z,7.76
2023-01-13T08:11:25.284Z,7.79
2023-01-13T08:13:55.747Z,7.82
2023-01-13T08:16:22.575Z,7.77
2023-01-13T08:18:49.365Z,7.75
2023-01-13T08:21:16.244Z,7.79
2023-01-13T08:23:44.115Z,7.87
2023-01-13T08:26:12.556Z,7.92
2023-01-13T08:28:42.375Z,7.95
2023-01-13T08:31:13.763Z,8.01
2023-01-13T08:33:41.185Z,8.07
2023-01-13T08:36:09.871Z,8.13
2023-01-13T08:38:37.515Z,8.19
2023-01-13T08:41:15.046Z,8.22
2023-01-13T08:43:42.076Z,8.21
2023-01-13T08:46:09.005Z,8.23
2023-01-13T08:48:35.898Z,8.25
2023-01-13T08:51:04.234Z,8.28
2023-01-13T08:53:31.241Z,8.31
2023-01-13T08:55:58.415Z,8.31
2023-01-13T08:58:25.405Z,8.36
2023-01-13T09:00:52.395Z,8.40
2023-01-13T09:03:19.395Z,8.44
2023-01-13T09:05:46.236Z,8.46
2023-01-13T09:08:13.136Z,8.51
2023-01-13T09:10:40.584Z,8.53
2023-01-13T09:13:11.824Z,8.57
2023-01-13T09:15:39.406Z,8.64
2023-01-13T09:18:06.511Z,8.67
2023-01-13T09:20:33.591Z,8.74
2023-01-13T09:23:00.539Z,8.83
2023-01-13T09:25:27.501Z,8.97
2023-01-13T09:27:54.518Z,9.15
2023-01-13T09:30:24.601Z,9.28
2023-01-13T09:33:11.822Z,9.43
2023-01-13T09:35:38.842Z,9.47
2023-01-13T09:38:08.561Z,9.50
2023-01-13T09:40:37.767Z,9.58
2023-01-13T09:43:38.572Z,9.61
2023-01-13T09:46:30.741Z,9.67
2023-01-13T09:48:58.481Z,9.61
2023-01-13T09:51:30.186Z,9.64
2023-01-13T09:53:59.237Z,9.61
2023-01-13T09:56:26.663Z,9.55
2023-01-13T09:58:53.575Z,9.46
2023-01-13T10:01:20.862Z,9.46
2023-01-13T10:03:49.499Z,9.50
2023-01-13T10:06:34.989Z,9.47
2023-01-13T10:09:02.135Z,9.55
2023-01-13T10:11:53.361Z,9.59
2023-01-13T10:14:27.316Z,9.74
2023-01-13T10:17:26.394Z,9.87
2023-01-13T10:20:02.915Z,9.94
2023-01-13T10:22:49.982Z,10.05
2023-01-13T10:25:36.025Z,10.09
2023-01-13T10:28:09.134Z,10.00
2023-01-13T10:30:40.187Z,9.97
2023-01-13T10:33:14.445Z,9.98
2023-01-13T10:35:47.353Z,9.91
2023-01-13T10:38:18.813Z,9.90
2023-01-13T10:40:56.698Z,10.00
2023-01-13T10:43:23.687Z,10.08
2023-01-13T10:45:52.803Z,10.06
2023-01-13T10:48:19.947Z,9.93
2023-01-13T10:50:48.725Z,9.89
2023-01-13T10:53:22.623Z,9.80
2023-01-13T10:56:00.759Z,9.73
2023-01-13T10:58:28.355Z,9.60
2023-01-13T11:00:59.831Z,9.61
2023-01-13T11:03:34.441Z,9.60
2023-01-13T11:06:01.583Z,9.58
2023-01-13T11:08:29.926Z,9.56
2023-01-13T11:10:58.823Z,9.60
2023-01-13T11:13:29.109Z,9.64
2023-01-13T11:16:13.323Z,9.70
2023-01-13T11:18:40.476Z,9.67
2023-01-13T11:21:13.118Z,9.64
2023-01-13T11:23:42.365Z,9.60
2023-01-13T11:26:26.368Z,9.56
2023-01-13T11:29:17.909Z,9.54
2023-01-13T11:31:49.439Z,9.50
2023-01-13T11:34:31.133Z,9.41
2023-01-13T11:36:59.082Z,9.43
2023-01-13T11:39:45.538Z,9.42
2023-01-13T11:42:21.498Z,9.47
2023-01-13T11:45:03.573Z,9.47
2023-01-13T11:47:31.515Z,9.52
2023-01-13T11:49:58.553Z,9.57
2023-01-13T11:52:44.981Z,9.60
2023-01-13T11:55:22.625Z,9.62
2023-01-13T11:57:52.697Z,9.65
2023-01-13T12:00:31.271Z,9.68
2023-01-13T12:02:59.644Z,9.68
2023-01-13T12:05:37.080Z,9.72
2023-01-13T12:08:11.056Z,9.74
2023-01-13T12:10:37.956Z,9.71
2023-01-13T12:13:04.870Z,9.71
2023-01-13T12:15:36.374Z,9.68
2023-01-13T12:18:03.321Z,9.72
2023-01-13T12:20:58.500Z,9.68
2023-01-13T12:23:25.445Z,9.63
2023-01-13T12:25:54.745Z,9.65
2023-01-13T12:28:49.094Z,9.63
2023-01-13T12:31:18.917Z,9.61
2023-01-13T12:33:52.748Z,9.57
2023-01-13T12:36:28.717Z,9.45
2023-01-13T12:39:04.047Z,9.44
2023-01-13T12:41:32.321Z,9.37
2023-01-13T12:44:17.635Z,9.17
2023-01-13T12:46:46.830Z,9.07
2023-01-13T12:49:27.255Z,8.93
2023-01-13T12:51:57.244Z,8.94
2023-01-13T12:54:30.046Z,8.91
2023-01-13T12:56:57.583Z,8.89
2023-01-13T12:59:24.333Z,8.92
2023-01-13T13:02:11.683Z,8.97
2023-01-13T13:04:41.747Z,9.01
2023-01-13T13:07:10.304Z,9.06
2023-01-13T13:09:42.931Z,9.13
2023-01-13T13:13:07.521Z,9.18
2023-01-13T13:15:35.544Z,9.20
2023-01-13T13:18:06.470Z,9.19
2023-01-13T13:20:53.838Z,9.13
2023-01-13T13:23:36.139Z,9.10
2023-01-13T13:26:15.060Z,9.16
2023-01-13T13:28:57.391Z,9.17
2023-01-13T13:31:30.592Z,9.13
2023-01-13T13:34:21.445Z,9.16
2023-01-13T13:37:03.694Z,9.17
2023-01-13T13:39:50.519Z,9.15
2023-01-13T13:42:43.536Z,9.19
2023-01-13T13:45:34.134Z,9.19
2023-01-13T13:48:18.412Z,9.17
2023-01-13T13:50:57.236Z,9.17
2023-01-13T13:53:27.057Z,9.17
2023-01-13T13:55:55.706Z,9.16
2023-01-13T13:58:23.952Z,9.11
2023-01-13T14:00:52.355Z,9.15
2023-01-13T14:03:24.961Z,9.08
2023-01-13T14:06:02.641Z,9.08
2023-01-13T14:08:39.631Z,9.09
2023-01-13T14:11:25.087Z,9.03
2023-01-13T14:14:13.261Z,9.09
2023-01-13T14:16:40.494Z,9.07
2023-01-13T14:19:18.443Z,9.05
2023-01-13T14:21:47.679Z,9.06
2023-01-13T14:24:16.411Z,9.09
2023-01-13T14:26:43.291Z,9.09
2023-01-13T14:29:14.159Z,9.09
2023-01-13T14:31:41.296Z,9.08
2023-01-13T14:34:30.988Z,9.10
2023-01-13T14:36:57.178Z,9.06
2023-01-13T14:39:25.041Z,9.09
2023-01-13T14:41:53.407Z,9.05
2023-01-13T14:44:27.861Z,9.08
2023-01-13T14:46:56.553Z,9.04
2023-01-13T14:49:37.600Z,9.02
2023-01-13T14:52:07.039Z,9.01
2023-01-13T14:54:44.096Z,9.06
2023-01-13T14:57:13.998Z,9.06
2023-01-13T14:59:48.556Z,8.99
2023-01-13T15:02:42.521Z,9.06
2023-01-13T15:05:27.860Z,9.11
2023-01-13T15:07:57.707Z,9.07
2023-01-13T15:10:38.164Z,9.14
2023-01-13T15:13:06.511Z,9.18
2023-01-13T15:15:33.581Z,9.17
2023-01-13T15:18:01.842Z,9.15
2023-01-13T15:20:29.016Z,9.16
2023-01-13T15:22:57.925Z,9.16
2023-01-13T15:25:24.840Z,9.14
2023-01-13T15:27:52.715Z,9.14
2023-01-13T15:30:25.965Z,9.12
2023-01-13T15:32:53.920Z,9.11
2023-01-13T15:35:22.062Z,9.11
2023-01-13T15:37:49.549Z,9.05
2023-01-13T15:40:20.869Z,9.05
2023-01-13T15:43:06.367Z,9.09
2023-01-13T15:45:52.649Z,9.05
2023-01-13T15:48:23.355Z,9.06
2023-01-13T15:50:51.077Z,9.03
2023-01-13T15:53:18.299Z,9.06
2023-01-13T15:55:47.101Z,9.04
2023-01-13T15:58:14.497Z,9.02
2023-01-13T16:00:42.021Z,9.00
2023-01-13T16:03:15.474Z,8.99
2023-01-13T16:05:42.986Z,9.00
2023-01-13T16:08:20.707Z,9.02
2023-01-13T16:10:48.398Z,9.03
2023-01-13T16:13:16.445Z,9.04
2023-01-13T16:15:44.546Z,9.02
2023-01-13T16:18:17.588Z,9.07
2023-01-13T16:20:44.632Z,9.05
2023-01-13T16:23:12.222Z,9.09
2023-01-13T16:25:39.867Z,9.09
2023-01-13T16:28:08.478Z,9.05
2023-01-13T16:30:37.091Z,9.07
2023-01-13T16:33:04.967Z,9.04
2023-01-13T16:35:32.359Z,9.00
2023-01-13T16:38:00.223Z,8.91
2023-01-13T16:40:31.216Z,8.88
2023-01-13T16:42:58.645Z,8.86
2023-01-13T16:45:25.701Z,8.82
2023-01-13T16:47:52.981Z,8.84
2023-01-13T16:50:30.473Z,8.83
2023-01-13T16:52:57.305Z,8.83
2023-01-13T16:55:25.351Z,8.81
2023-01-13T16:57:52.245Z,8.80
2023-01-13T17:00:19.778Z,8.87
2023-01-13T17:02:47.024Z,8.86
2023-01-13T17:05:13.975Z,8.86
2023-01-13T17:07:45.089Z,8.89
2023-01-13T17:10:16.656Z,8.90
2023-01-13T17:12:43.562Z,8.97
2023-01-13T17:15:12.439Z,8.93
2023-01-13T17:17:41.467Z,8.86
2023-01-13T17:20:12.518Z,8.80
2023-01-13T17:22:39.832Z,8.67
2023-01-13T17:25:07.415Z,8.54
2023-01-13T17:27:34.848Z,8.49
2023-01-13T17:30:02.333Z,8.36
2023-01-13T17:32:29.531Z,8.24
2023-01-13T17:34:56.718Z,8.07
2023-01-13T17:37:24.119Z,7.98
2023-01-13T17:39:51.330Z,7.87
2023-01-13T17:42:18.189Z,7.79
2023-01-13T17:44:45.331Z,7.71
2023-01-13T17:47:12.689Z,7.64
2023-01-13T17:49:39.677Z,7.57
2023-01-13T17:52:07.420Z,7.57
2023-01-13T17:54:34.254Z,7.61
2023-01-13T17:57:02.801Z,7.55
2023-01-13T17:59:29.673Z,7.54
2023-01-13T18:01:57.747Z,7.60
2023-01-13T18:04:27.690Z,7.67
2023-01-13T18:06:56.789Z,7.58
2023-01-13T18:09:23.955Z,7.55
2023-01-13T18:11:51.543Z,7.50
2023-01-13T18:14:22.538Z,7.45
2023-01-13T18:16:49.941Z,7.40
2023-01-13T18:19:35.556Z,7.37
2023-01-13T18:22:21.479Z,7.34
2023-01-13T18:25:06.989Z,7.29
2023-01-13T18:27:35.671Z,7.25
2023-01-13T18:30:04.229Z,7.25
2023-01-13T18:32:33.014Z,7.35
2023-01-13T18:35:06.635Z,7.36
2023-01-13T18:37:39.059Z,7.42
2023-01-13T18:40:08.029Z,7.46
2023-01-13T18:42:54.961Z,7.42
2023-01-13T18:45:24.753Z,7.42
2023-01-13T18:47:52.387Z,7.41
2023-01-13T18:50:19.315Z,7.39
2023-01-13T18:52:46.376Z,7.38
2023-01-13T18:55:13.263Z,7.42
2023-01-13T18:57:40.647Z,7.47
2023-01-13T19:00:12.513Z,7.51
2023-01-13T19:02:40.089Z,7.58
2023-01-13T19:05:07.163Z,7.61
2023-01-13T19:07:36.051Z,7.56
2023-01-13T19:10:04.557Z,7.52
2023-01-13T19:12:31.659Z,7.35
2023-01-13T19:14:59.009Z,7.32
2023-01-13T19:17:27.269Z,7.21
2023-01-13T19:19:55.989Z,7.20
2023-01-13T19:22:24.084Z,7.13
2023-01-13T19:24:50.952Z,7.09
2023-01-13T19:27:19.026Z,7.07
2023-01-13T19:29:52.405Z,7.06
2023-01-13T19:32:20.208Z,7.01
2023-01-13T19:34:49.421Z,7.00
2023-01-13T19:37:18.257Z,6.92
2023-01-13T19:39:45.289Z,6.92
2023-01-13T19:42:31.480Z,6.91
2023-01-13T19:45:17.224Z,6.88
2023-01-13T19:47:45.772Z,6.89
2023-01-13T19:50:13.861Z,6.91
2023-01-13T19:52:43.991Z,6.91
2023-01-13T19:55:12.432Z,6.91
2023-01-13T19:57:40.184Z,6.94
2023-01-13T20:00:10.003Z,6.94
2023-01-13T20:02:37.079Z,6.95
2023-01-13T20:05:06.612Z,6.95
2023-01-13T20:07:35.039Z,6.90
2023-01-13T20:10:03.263Z,6.87
2023-01-13T20:12:30.296Z,6.89
2023-01-13T20:14:57.470Z,6.89
2023-01-13T20:17:26.318Z,6.92
2023-01-13T20:19:53.194Z,6.94
2023-01-13T20:22:22.078Z,6.92
2023-01-13T20:24:55.283Z,6.92
2023-01-13T20:27:24.112Z,6.96
2023-01-13T20:29:51.929Z,6.98
2023-01-13T20:32:22.332Z,7.03
2023-01-13T20:34:49.400Z,7.11
2023-01-13T20:37:18.308Z,7.09
2023-01-13T20:39:46.635Z,7.11
2023-01-13T20:42:33.015Z,7.09
2023-01-13T20:45:01.220Z,7.07
2023-01-13T20:47:29.696Z,7.02
2023-01-13T20:49:56.668Z,6.98
2023-01-13T20:52:24.385Z,6.94
2023-01-13T20:54:53.792Z,6.91
2023-01-13T20:57:20.779Z,6.97
2023-01-13T20:59:47.701Z,6.98
2023-01-13T21:02:16.550Z,6.98
2023-01-13T21:04:44.443Z,7.02
2023-01-13T21:07:11.342Z,7.04
2023-01-13T21:09:38.667Z,7.01
2023-01-13T21:12:25.438Z,7.05
2023-01-13T21:15:11.258Z,7.04
2023-01-13T21:17:56.901Z,7.10
2023-01-13T21:20:24.087Z,7.09
2023-01-13T21:22:51.203Z,7.06
2023-01-13T21:25:20.867Z,7.08
2023-01-13T21:27:48.673Z,7.17
2023-01-13T21:30:18.866Z,7.21
2023-01-13T21:32:47.540Z,7.20
2023-01-13T21:35:17.936Z,7.23
2023-01-13T21:37:44.993Z,7.28
2023-01-13T21:40:13.138Z,7.32
2023-01-13T21:42:59.621Z,7.33
2023-01-13T21:45:45.721Z,7.36
2023-01-13T21:48:12.980Z,7.37
2023-01-13T21:50:40.107Z,7.37
2023-01-13T21:53:10.030Z,7.35
2023-01-13T21:55:37.652Z,7.29
2023-01-13T21:58:12.331Z,7.31
2023-01-13T22:00:39.946Z,7.29
2023-01-13T22:03:07.680Z,7.25
2023-01-13T22:05:34.885Z,7.23
2023-01-13T22:08:02.058Z,7.21
2023-01-13T22:10:30.225Z,7.16
2023-01-13T22:13:21.243Z,7.17
2023-01-13T22:15:48.297Z,7.07
2023-01-13T22:18:16.068Z,7.09
2023-01-13T22:20:42.992Z,7.12
2023-01-13T22:23:10.258Z,7.04
2023-01-13T22:25:37.134Z,7.12
2023-01-13T22:28:06.095Z,7.13
2023-01-13T22:30:33.415Z,7.15
2023-01-13T22:33:00.386Z,7.17
2023-01-13T22:35:27.884Z,7.21
2023-01-13T22:37:54.845Z,7.22
2023-01-13T22:40:22.117Z,7.25
2023-01-13T22:42:49.074Z,7.28
2023-01-13T22:45:19.499Z,7.29
2023-01-13T22:47:47.132Z,7.27
2023-01-13T22:50:17.737Z,7.31
2023-01-13T22:52:44.671Z,7.35
2023-01-13T22:55:11.754Z,7.38
2023-01-13T22:57:47.250Z,7.37
2023-01-13T23:00:15.279Z,7.40
2023-01-13T23:02:42.781Z,7.45
2023-01-13T23:05:10.077Z,7.46
2023-01-13T23:07:37.284Z,7.49
2023-01-13T23:10:04.919Z,7.49
2023-01-13T23:12:32.840Z,7.51
2023-01-13T23:15:00.104Z,7.50
2023-01-13T23:17:27.435Z,7.53
2023-01-13T23:19:54.542Z,7.52
2023-01-13T23:22:21.597Z,7.51
2023-01-13T23:24:48.783Z,7.52
2023-01-13T23:27:15.733Z,7.49
2023-01-13T23:29:42.758Z,7.52
2023-01-13T23:32:09.734Z,7.50
2023-01-13T23:34:36.819Z,7.53
2023-01-13T23:37:06.239Z,7.56
2023-01-13T23:39:33.055Z,7.56
2023-01-13T23:42:00.475Z,7.53
2023-01-13T23:44:29.595Z,7.53
2023-01-13T23:46:57.536Z,7.58
2023-01-13T23:49:24.515Z,7.61
2023-01-13T23:51:51.607Z,7.59
2023-01-13T23:54:19.289Z,7.63
2023-01-13T23:56:46.521Z,7.62
2023-01-13T23:59:13.658Z,7.61
